Time;durP1;ratioP1;P1;durP2;ratioP2;P2;SDS_P1;SDS_P2;PMS_P1;PMS_P2;Temp;Humidity;BMP_temperature;BMP_pressure;BME280_temperature;BME280_humidity;BME280_pressure;Samples;Min_cycle;Max_cycle;Signal;HPM_P1;HPM_P2
2024/02/03 00:01:46;;;;;;;4.20;2.67;;;;;;;20.86;41.67;102535.19;4895448;28;98194;-80
2024/02/03 00:04:12;;;;;;;4.45;2.95;;;;;;;20.85;41.46;102536.94;4923892;28;97690;-79
2024/02/03 00:06:37;;;;;;;4.60;2.72;;;;;;;20.85;41.60;102536.94;4909385;28;98311;-80
2024/02/03 00:09:05;;;;;;;4.15;2.35;;;;;;;20.85;41.28;102536.06;4908996;28;119812;-80
2024/02/03 00:11:31;;;;;;;4.35;2.83;;;;;;;20.85;41.48;102536.94;4923481;28;96807;-80
2024/02/03 00:13:56;;;;;;;4.55;2.80;;;;;;;20.85;41.47;102531.63;4907838;28;100315;-79
2024/02/03 00:16:21;;;;;;;4.25;2.08;;;;;;;20.85;41.41;102530.75;4920009;28;120066;-78
2024/02/03 00:18:47;;;;;;;3.95;1.95;;;;;;;20.85;41.31;102536.06;4925076;28;122268;-80
2024/02/03 00:21:12;;;;;;;4.70;2.70;;;;;;;20.85;41.44;102533.41;4921499;28;97827;-78
2024/02/03 00:23:37;;;;;;;4.32;2.92;;;;;;;20.85;41.73;102536.94;4910547;28;129924;-79
2024/02/03 00:26:03;;;;;;;3.92;2.65;;;;;;;20.85;41.48;102522.81;4887077;28;97477;-80
2024/02/03 00:28:28;;;;;;;4.05;2.00;;;;;;;20.85;41.34;102520.16;4925356;28;97067;-79
2024/02/03 00:30:54;;;;;;;4.22;2.30;;;;;;;20.85;41.48;102512.19;4929106;28;97313;-79
2024/02/03 00:33:19;;;;;;;4.00;2.25;;;;;;;20.84;41.55;102519.28;4929658;28;98249;-80
2024/02/03 00:35:44;;;;;;;5.45;2.33;;;;;;;20.84;41.34;102515.75;4926445;28;96891;-80
2024/02/03 00:38:10;;;;;;;3.63;2.28;;;;;;;20.84;41.50;102523.72;4915991;28;96879;-79
2024/02/03 00:40:35;;;;;;;3.25;1.98;;;;;;;20.85;41.38;102518.38;4911816;28;96848;-80
2024/02/03 00:43:01;;;;;;;4.22;1.92;;;;;;;20.84;41.69;102529.88;4913370;28;110535;-80
2024/02/03 00:45:26;;;;;;;3.72;2.13;;;;;;;20.85;41.75;102526.31;4910008;28;126579;-80
2024/02/03 00:47:51;;;;;;;3.85;2.67;;;;;;;20.87;41.32;102526.31;4917744;28;120840;-80
2024/02/03 00:50:17;;;;;;;4.43;2.20;;;;;;;20.84;41.74;102519.28;4920829;28;96925;-80
2024/02/03 00:52:43;;;;;;;3.05;2.45;;;;;;;20.85;41.68;102526.31;4927081;28;100145;-80
2024/02/03 00:55:09;;;;;;;4.75;2.67;;;;;;;20.85;41.47;102518.38;4911351;28;97489;-80
2024/02/03 00:57:37;;;;;;;3.33;2.03;;;;;;;20.85;41.78;102515.72;4923976;28;97027;-79
2024/02/03 01:00:04;;;;;;;3.47;2.40;;;;;;;20.86;41.59;102517.50;4923335;28;96863;-80
2024/02/03 01:02:29;;;;;;;2.85;1.95;;;;;;;20.86;41.72;102511.31;4928388;28;98491;-80
2024/02/03 01:04:55;;;;;;;3.08;1.98;;;;;;;20.85;41.55;102518.38;4910123;28;126470;-80
2024/02/03 01:07:20;;;;;;;3.75;2.15;;;;;;;20.86;41.77;102519.28;4928946;28;96991;-79
2024/02/03 01:09:45;;;;;;;3.55;2.33;;;;;;;20.85;41.99;102513.06;4927048;28;97018;-80
2024/02/03 01:12:11;;;;;;;3.17;2.00;;;;;;;20.85;41.40;102513.06;4911296;28;97606;-79
2024/02/03 01:14:36;;;;;;;4.57;2.33;;;;;;;20.86;41.71;102519.28;4928699;28;116219;-80
2024/02/03 01:17:03;;;;;;;3.53;1.80;;;;;;;20.85;41.54;102523.69;4910829;28;100435;-79
2024/02/03 01:19:29;;;;;;;3.65;2.60;;;;;;;20.85;41.67;102520.16;4924592;28;97319;-80
2024/02/03 01:21:54;;;;;;;3.85;2.05;;;;;;;20.85;41.32;102517.50;4923033;28;97398;-80
2024/02/03 01:24:20;;;;;;;2.83;1.60;;;;;;;20.86;41.41;102516.63;4905483;28;96952;-80
2024/02/03 01:26:45;;;;;;;3.33;2.45;;;;;;;20.85;41.46;102521.03;4921407;28;99060;-80
2024/02/03 01:29:11;;;;;;;3.78;2.22;;;;;;;20.87;41.52;102515.72;4926782;28;105198;-80
2024/02/03 01:31:36;;;;;;;2.78;1.70;;;;;;;20.86;41.70;102511.31;4905569;28;119380;-80
2024/02/03 01:34:02;;;;;;;3.33;1.58;;;;;;;20.85;41.55;102515.72;4923749;28;97533;-80
2024/02/03 01:36:27;;;;;;;3.78;2.03;;;;;;;20.86;41.61;102513.97;4910539;28;97070;-80
2024/02/03 01:38:53;;;;;;;3.00;1.55;;;;;;;20.86;41.66;102509.53;4927775;28;96812;-80
2024/02/03 01:41:18;;;;;;;3.55;1.83;;;;;;;20.86;41.64;102512.19;4927851;28;96823;-79
2024/02/03 01:43:44;;;;;;;3.05;1.75;;;;;;;20.86;41.65;102503.38;4911052;28;96937;-79
2024/02/03 01:46:11;;;;;;;3.17;2.08;;;;;;;20.87;41.73;102497.16;4926781;28;96971;-80
2024/02/03 01:48:37;;;;;;;3.13;1.73;;;;;;;20.86;41.33;102498.06;4928258;28;97503;-79
2024/02/03 01:51:03;;;;;;;3.38;2.13;;;;;;;20.87;41.73;102497.16;4928576;28;97488;-80
2024/02/03 01:53:29;;;;;;;3.50;2.20;;;;;;;20.86;41.66;102496.28;4907257;28;99308;-80
2024/02/03 01:55:56;;;;;;;3.40;2.13;;;;;;;20.86;41.57;102490.97;4910731;28;97604;-80
2024/02/03 01:58:22;;;;;;;3.90;1.63;;;;;;;20.86;41.45;102493.63;4927238;28;96847;-80
2024/02/03 02:00:48;;;;;;;2.50;1.88;;;;;;;20.87;41.81;102499.81;4927985;28;97692;-79
2024/02/03 02:03:14;;;;;;;3.00;1.60;;;;;;;20.86;41.70;102496.28;4928086;28;96847;-79
2024/02/03 02:05:40;;;;;;;2.92;2.05;;;;;;;20.88;41.45;102494.50;4926452;28;99083;-79
2024/02/03 02:08:05;;;;;;;3.75;2.67;;;;;;;20.87;41.54;102492.75;4893703;28;97003;-80
2024/02/03 02:10:31;;;;;;;3.15;1.70;;;;;;;20.87;41.86;102481.25;4927549;28;96914;-80
2024/02/03 02:12:56;;;;;;;3.17;1.92;;;;;;;20.86;41.99;102493.63;4910793;28;97496;-80
2024/02/03 02:15:22;;;;;;;3.60;2.28;;;;;;;20.86;41.83;102488.31;4909384;28;96877;-80
2024/02/03 02:17:48;;;;;;;3.13;1.73;;;;;;;20.86;41.42;102484.81;4928295;28;96817;-80
2024/02/03 02:20:14;;;;;;;3.00;2.00;;;;;;;20.86;41.65;102490.09;4910146;28;97579;-80
2024/02/03 02:22:39;;;;;;;4.43;2.47;;;;;;;20.86;41.77;102492.75;4927007;28;97360;-80
2024/02/03 02:25:05;;;;;;;3.17;1.63;;;;;;;20.86;41.68;102482.16;4928404;28;97264;-80
2024/02/03 02:27:31;;;;;;;2.83;2.00;;;;;;;20.87;41.61;102484.78;4910518;28;97069;-79
2024/02/03 02:29:57;;;;;;;2.92;1.63;;;;;;;20.88;41.67;102488.31;4909357;28;97559;-80
2024/02/03 02:32:22;;;;;;;2.45;1.70;;;;;;;20.86;41.42;102479.50;4911227;28;97715;-80
2024/02/03 02:34:48;;;;;;;2.92;1.95;;;;;;;20.86;41.68;102484.81;4931449;28;100790;-80
2024/02/03 02:37:13;;;;;;;3.78;1.92;;;;;;;20.86;41.79;102490.09;4915403;28;96926;-80
2024/02/03 02:39:39;;;;;;;3.40;2.13;;;;;;;20.86;41.79;102498.94;4932389;28;97873;-80
2024/02/03 02:42:04;;;;;;;3.28;1.83;;;;;;;20.87;41.61;102490.09;4925296;28;99854;-80
2024/02/03 02:44:30;;;;;;;3.60;1.90;;;;;;;20.87;41.54;102486.53;4923249;28;97471;-80
2024/02/03 02:46:56;;;;;;;2.78;1.48;;;;;;;20.87;41.63;102475.94;4910038;28;96949;-80
2024/02/03 02:49:22;;;;;;;2.63;2.13;;;;;;;20.87;41.48;102479.50;4927394;28;99634;-79
2024/02/03 02:51:47;;;;;;;2.63;1.48;;;;;;;20.87;41.91;102483.88;4931205;28;96947;-79
2024/02/03 02:54:12;;;;;;;2.67;1.52;;;;;;;20.87;41.80;102481.25;4913818;28;97743;-79
2024/02/03 02:56:38;;;;;;;2.50;1.63;;;;;;;20.87;41.65;102482.16;4910161;28;96908;-79
2024/02/03 02:59:03;;;;;;;3.08;2.33;;;;;;;20.86;41.78;102468.88;4927276;28;100368;-79
2024/02/03 03:01:28;;;;;;;2.97;2.00;;;;;;;20.87;41.94;102468.88;4929213;28;125473;-79
2024/02/03 03:03:54;;;;;;;2.78;1.80;;;;;;;20.87;41.74;102462.69;4913727;28;97880;-80
2024/02/03 03:06:20;;;;;;;3.70;2.15;;;;;;;20.87;41.51;102455.63;4931387;28;96830;-80
2024/02/03 03:08:45;;;;;;;2.97;2.15;;;;;;;20.87;41.79;102462.69;4930083;28;97549;-79
2024/02/03 03:11:12;;;;;;;2.92;1.92;;;;;;;20.87;41.77;102465.31;4911389;28;99412;-79
2024/02/03 03:13:38;;;;;;;3.55;1.60;;;;;;;20.86;41.70;102477.72;4913138;28;96896;-80
2024/02/03 03:16:06;;;;;;;2.67;1.58;;;;;;;20.87;41.71;102476.84;4908549;28;97137;-79
2024/02/03 03:18:31;;;;;;;3.22;1.55;;;;;;;20.88;41.88;102488.31;4930952;28;97175;-80
2024/02/03 03:20:58;;;;;;;2.53;1.50;;;;;;;20.88;41.69;102473.28;4929628;28;126682;-79
2024/02/03 03:23:24;;;;;;;2.63;1.48;;;;;;;20.87;41.60;102479.50;4915552;28;97717;-80
2024/02/03 03:25:49;;;;;;;2.85;1.50;;;;;;;20.87;41.81;102467.97;4929825;28;121246;-79
2024/02/03 03:28:14;;;;;;;2.58;1.33;;;;;;;20.88;41.81;102461.81;4928093;28;96775;-80
2024/02/03 03:30:40;;;;;;;2.53;1.52;;;;;;;20.87;41.53;102460.03;4916990;28;118938;-79
2024/02/03 03:33:05;;;;;;;2.67;1.77;;;;;;;20.87;41.72;102454.72;4925018;28;122068;-80
2024/02/03 03:35:30;;;;;;;2.72;1.42;;;;;;;20.88;41.63;102456.50;4928881;28;97355;-80
2024/02/03 03:37:57;;;;;;;2.75;1.80;;;;;;;20.87;41.56;102452.06;4915981;28;99115;-79
2024/02/03 03:40:23;;;;;;;2.88;1.60;;;;;;;20.87;41.21;102445.00;4927249;28;98522;-80
2024/02/03 03:42:49;;;;;;;2.85;1.45;;;;;;;20.88;41.91;102454.72;4914970;28;96769;-79
2024/02/03 03:45:16;;;;;;;2.22;1.13;;;;;;;20.89;41.54;102447.63;4915910;28;97289;-79
2024/02/03 03:47:42;;;;;;;2.85;1.40;;;;;;;20.88;41.74;102449.41;4930813;28;96918;-79
2024/02/03 03:50:08;;;;;;;2.70;1.92;;;;;;;20.88;41.46;102446.75;4929127;28;97264;-79
2024/02/03 03:52:34;;;;;;;2.92;1.85;;;;;;;20.88;41.92;102445.88;4933597;28;96973;-79
2024/02/03 03:55:00;;;;;;;3.88;1.83;;;;;;;20.88;41.92;102448.53;4933654;28;97257;-80
2024/02/03 03:57:26;;;;;;;2.50;1.95;;;;;;;20.87;41.98;102445.00;4896869;28;99646;-79
2024/02/03 03:59:51;;;;;;;2.75;1.42;;;;;;;20.87;41.75;102442.38;4914153;28;98023;-79
2024/02/03 04:02:17;;;;;;;2.83;2.10;;;;;;;20.88;41.77;102445.88;4915178;28;96883;-79
2024/02/03 04:04:43;;;;;;;2.83;1.80;;;;;;;20.87;41.77;102447.66;4916639;28;97013;-79
2024/02/03 04:07:08;;;;;;;2.42;1.45;;;;;;;20.87;41.73;102452.97;4914577;28;100570;-79
2024/02/03 04:09:34;;;;;;;2.42;1.50;;;;;;;20.88;41.61;102453.84;4932802;28;97314;-79
2024/02/03 04:11:59;;;;;;;2.92;2.00;;;;;;;20.89;41.83;102452.94;4911592;28;97487;-80
2024/02/03 04:14:24;;;;;;;1.92;1.02;;;;;;;20.88;41.73;102453.84;4932837;28;97042;-80
2024/02/03 04:16:50;;;;;;;2.42;1.92;;;;;;;20.88;41.72;102456.50;4931485;28;126745;-80
2024/02/03 04:19:15;;;;;;;2.58;1.70;;;;;;;20.87;41.85;102455.63;4913568;28;122916;-80
2024/02/03 04:21:40;;;;;;;2.70;1.65;;;;;;;20.88;41.62;102454.72;4932033;28;98390;-80
2024/02/03 04:24:06;;;;;;;2.20;1.70;;;;;;;20.88;41.59;102459.16;4910183;28;97063;-79
2024/02/03 04:26:33;;;;;;;2.22;1.30;;;;;;;20.87;41.93;102452.97;4926090;28;96839;-79
2024/02/03 04:28:58;;;;;;;2.60;1.80;;;;;;;20.88;42.04;102456.50;4931509;28;97812;-79
2024/02/03 04:31:23;;;;;;;2.30;1.23;;;;;;;20.88;41.59;102467.09;4931748;28;97938;-80
2024/02/03 04:33:49;;;;;;;2.10;1.55;;;;;;;20.88;41.67;102456.50;4914775;28;97014;-80
2024/02/03 04:36:14;;;;;;;2.50;1.70;;;;;;;20.88;42.04;102448.53;4930507;28;98097;-79
2024/02/03 04:38:39;;;;;;;2.30;1.02;;;;;;;20.88;41.86;102453.84;4930956;28;126675;-79
2024/02/03 04:41:05;;;;;;;2.30;1.55;;;;;;;20.89;41.90;102450.28;4897671;28;97182;-80
2024/02/03 04:43:31;;;;;;;1.73;1.15;;;;;;;20.87;41.58;102444.13;4929736;28;97119;-79
2024/02/03 04:45:56;;;;;;;2.22;1.20;;;;;;;20.88;41.78;102440.59;4930037;28;98503;-80
2024/02/03 04:48:21;;;;;;;2.38;1.33;;;;;;;20.88;41.65;102444.09;4914161;28;125695;-80
2024/02/03 04:50:47;;;;;;;2.45;1.80;;;;;;;20.89;41.90;102444.97;4931677;28;96665;-79
2024/02/03 04:53:12;;;;;;;2.60;1.90;;;;;;;20.88;42.00;102440.59;4913123;28;120360;-80
2024/02/03 04:55:37;;;;;;;2.05;1.38;;;;;;;20.88;41.79;102444.09;4929727;28;97815;-80
2024/02/03 04:58:03;;;;;;;2.25;1.48;;;;;;;20.88;42.09;102444.09;4891838;28;126801;-80
2024/02/03 05:00:28;;;;;;;2.65;1.35;;;;;;;20.89;41.75;102447.63;4912238;28;97146;-80
2024/02/03 05:02:53;;;;;;;3.25;1.52;;;;;;;20.88;41.86;102446.75;4912858;28;121712;-80
2024/02/03 05:05:19;;;;;;;1.98;1.05;;;;;;;20.88;41.65;102445.88;4912866;28;127171;-79
2024/02/03 05:07:46;;;;;;;1.70;1.13;;;;;;;20.89;41.49;102445.88;4931301;28;97212;-79
2024/02/03 05:10:12;;;;;;;2.40;1.83;;;;;;;20.89;42.05;102442.31;4911130;28;97367;-79
2024/02/03 05:12:37;;;;;;;2.17;1.45;;;;;;;20.89;41.58;102431.72;4931339;28;96874;-79
2024/02/03 05:15:03;;;;;;;1.98;1.50;;;;;;;20.90;41.96;102433.50;4897004;28;100243;-80
2024/02/03 05:17:29;;;;;;;2.40;1.13;;;;;;;20.89;41.63;102424.66;4912438;28;99866;-79
2024/02/03 05:19:54;;;;;;;2.33;1.05;;;;;;;20.89;41.66;102431.72;4928824;28;97458;-79
2024/02/03 05:22:20;;;;;;;1.95;1.30;;;;;;;20.89;41.85;102431.72;4910992;28;123204;-79
2024/02/03 05:24:46;;;;;;;2.58;1.83;;;;;;;20.88;41.77;102430.84;4921378;28;97422;-79
2024/02/03 05:27:11;;;;;;;2.03;1.20;;;;;;;20.88;41.85;102425.53;4899720;28;126785;-79
2024/02/03 05:29:40;;;;;;;2.75;1.27;;;;;;;20.89;41.84;102426.41;4930855;28;97359;-79
2024/02/03 05:32:06;;;;;;;2.22;1.60;;;;;;;20.90;41.71;102420.22;4908938;28;96914;-79
2024/02/03 05:34:31;;;;;;;3.05;1.50;;;;;;;20.89;41.95;102422.00;4903742;28;98398;-79
2024/02/03 05:36:56;;;;;;;2.45;1.35;;;;;;;20.89;41.78;102419.38;4930068;28;112947;-79
2024/02/03 05:39:22;;;;;;;2.28;1.23;;;;;;;20.89;41.78;102407.84;4924698;28;118859;-79
2024/02/03 05:41:47;;;;;;;1.98;1.08;;;;;;;20.89;41.90;102400.78;4919257;28;97172;-79
2024/02/03 05:44:13;;;;;;;2.28;1.25;;;;;;;20.90;41.58;102397.22;4906027;28;97613;-79
2024/02/03 05:46:38;;;;;;;2.22;1.13;;;;;;;20.89;41.83;102402.53;4910987;28;127599;-79
2024/02/03 05:49:03;;;;;;;2.47;1.45;;;;;;;20.90;41.82;102412.28;4905969;28;96915;-79
2024/02/03 05:51:29;;;;;;;2.40;1.80;;;;;;;20.90;41.70;102412.28;4930052;28;98323;-80
2024/02/03 05:53:57;;;;;;;2.15;1.13;;;;;;;20.90;41.73;102417.59;4930334;28;97403;-79
2024/02/03 05:56:22;;;;;;;2.30;1.33;;;;;;;20.90;41.83;102414.94;4910653;28;97455;-79
2024/02/03 05:58:47;;;;;;;1.92;1.00;;;;;;;20.90;41.71;102415.81;4910684;28;96972;-79
2024/02/03 06:01:18;;;;;;;2.45;1.60;;;;;;;20.90;41.99;102413.16;4929547;28;120482;-79
2024/02/03 06:03:44;;;;;;;2.10;1.50;;;;;;;20.90;41.62;102406.97;4910118;28;100115;-79
2024/02/03 06:06:09;;;;;;;1.48;1.02;;;;;;;20.90;41.76;102406.97;4904519;28;97933;-80
2024/02/03 06:08:35;;;;;;;1.63;1.02;;;;;;;20.89;41.69;102403.44;4919000;28;96952;-80
2024/02/03 06:11:00;;;;;;;2.05;1.65;;;;;;;20.90;42.09;102404.31;4928615;28;122542;-79
2024/02/03 06:13:25;;;;;;;2.05;1.60;;;;;;;20.91;41.77;102395.50;4929911;28;98561;-79
2024/02/03 06:15:52;;;;;;;2.10;1.48;;;;;;;20.90;41.57;102402.53;4923980;28;96867;-78
2024/02/03 06:18:19;;;;;;;2.00;1.30;;;;;;;20.90;41.69;102393.72;4909829;28;96735;-79
2024/02/03 06:20:45;;;;;;;1.80;0.88;;;;;;;20.91;41.68;102392.84;4912948;28;97212;-79
2024/02/03 06:23:11;;;;;;;2.63;1.88;;;;;;;20.91;41.65;102387.53;4930430;28;97829;-79
2024/02/03 06:25:36;;;;;;;2.15;1.23;;;;;;;20.91;41.69;102408.75;4926740;28;96849;-79
2024/02/03 06:28:01;;;;;;;2.00;1.35;;;;;;;20.90;41.77;102409.63;4932012;28;96876;-79
2024/02/03 06:30:27;;;;;;;1.63;1.13;;;;;;;20.91;41.98;102419.34;4925824;28;122236;-80
2024/02/03 06:32:52;;;;;;;1.63;1.17;;;;;;;20.91;41.65;102414.94;4931571;28;97556;-79
2024/02/03 06:35:18;;;;;;;2.17;1.67;;;;;;;20.91;41.98;102406.97;4914753;28;97390;-79
2024/02/03 06:37:43;;;;;;;1.90;1.20;;;;;;;20.91;41.74;102408.75;4913933;28;96914;-79
2024/02/03 06:40:09;;;;;;;1.60;1.05;;;;;;;20.92;41.85;102410.50;4908630;28;116365;-79
2024/02/03 06:42:34;;;;;;;2.15;0.90;;;;;;;20.91;41.83;102408.75;4928627;28;99762;-80
2024/02/03 06:45:00;;;;;;;2.30;1.63;;;;;;;20.91;41.89;102414.94;4931249;28;126411;-79
2024/02/03 06:47:25;;;;;;;2.47;1.45;;;;;;;20.91;41.89;102412.28;4914584;28;97092;-79
2024/02/03 06:49:50;;;;;;;1.90;1.38;;;;;;;20.91;41.99;102419.34;4914505;28;96906;-79
2024/02/03 06:52:16;;;;;;;2.05;1.40;;;;;;;20.91;41.71;102416.72;4914029;28;126872;-79
2024/02/03 06:54:41;;;;;;;1.80;0.93;;;;;;;20.91;42.03;102425.53;4897059;28;126770;-79
2024/02/03 06:57:06;;;;;;;1.58;1.25;;;;;;;20.90;41.53;102421.09;4897623;28;105083;-79
2024/02/03 06:59:32;;;;;;;1.63;0.98;;;;;;;20.90;42.06;102418.44;4929393;28;121618;-80
2024/02/03 07:01:57;;;;;;;2.05;1.58;;;;;;;20.91;41.94;102420.22;4932062;28;97509;-80
2024/02/03 07:04:22;;;;;;;2.80;1.85;;;;;;;20.91;41.71;102419.34;4896963;28;120693;-79
2024/02/03 07:06:48;;;;;;;1.90;1.50;;;;;;;20.90;41.88;102423.75;4913816;28;110761;-80
2024/02/03 07:09:13;;;;;;;1.35;1.02;;;;;;;20.91;42.01;102422.00;4912175;28;122310;-79
2024/02/03 07:11:39;;;;;;;1.65;1.02;;;;;;;20.91;42.10;102417.56;4931704;28;96681;-79
2024/02/03 07:14:04;;;;;;;1.70;1.35;;;;;;;20.92;41.81;102421.09;4913984;28;97946;-79
2024/02/03 07:16:30;;;;;;;1.85;1.30;;;;;;;20.91;41.72;102416.72;4928955;28;113726;-79
2024/02/03 07:18:56;;;;;;;1.55;0.98;;;;;;;20.91;42.00;102428.19;4912802;28;96940;-79
2024/02/03 07:21:22;;;;;;;2.10;1.55;;;;;;;20.91;41.94;102422.00;4923886;28;98056;-80
2024/02/03 07:23:47;;;;;;;1.90;1.30;;;;;;;20.91;41.63;102422.88;4905415;28;99537;-79
2024/02/03 07:26:13;;;;;;;2.60;1.75;;;;;;;20.91;41.96;102430.84;4930468;28;97185;-79
2024/02/03 07:28:38;;;;;;;1.98;1.60;;;;;;;20.91;41.94;102430.84;4926624;28;97672;-79
2024/02/03 07:31:03;;;;;;;2.33;1.15;;;;;;;20.91;41.71;102428.19;4928140;28;98084;-80
2024/02/03 07:33:30;;;;;;;2.00;1.13;;;;;;;20.92;42.05;102437.00;4912549;28;96854;-80
2024/02/03 07:35:56;;;;;;;1.48;1.08;;;;;;;20.92;41.77;102442.31;4911557;28;104651;-79
2024/02/03 07:38:21;;;;;;;2.83;1.02;;;;;;;20.91;41.89;102435.28;4928786;28;120626;-80
2024/02/03 07:40:46;;;;;;;1.52;1.10;;;;;;;20.92;41.87;102434.38;4912424;28;98155;-80
2024/02/03 07:43:12;;;;;;;1.75;1.50;;;;;;;20.91;41.67;102428.19;4930485;28;96720;-79
2024/02/03 07:45:37;;;;;;;1.40;0.90;;;;;;;20.92;41.79;102431.72;4910535;28;97002;-80
2024/02/03 07:48:03;;;;;;;2.25;0.90;;;;;;;20.92;41.85;102439.66;4927077;28;96879;-80
2024/02/03 07:50:29;;;;;;;2.00;1.13;;;;;;;20.91;41.70;102437.94;4920581;28;97206;-80
2024/02/03 07:52:54;;;;;;;1.60;1.17;;;;;;;20.92;41.61;102432.59;4908149;28;99679;-80
2024/02/03 07:55:19;;;;;;;1.55;0.95;;;;;;;20.94;41.91;102437.00;4927162;28;96841;-79
2024/02/03 07:57:45;;;;;;;2.75;1.48;;;;;;;20.92;41.78;102432.59;4923134;28;118519;-80
2024/02/03 08:00:10;;;;;;;1.90;1.13;;;;;;;20.93;41.87;102438.78;4911386;28;99115;-80
2024/02/03 08:02:36;;;;;;;2.45;1.08;;;;;;;20.94;42.12;102440.53;4911132;28;97299;-80
2024/02/03 08:05:01;;;;;;;1.73;1.60;;;;;;;20.93;41.85;102449.41;4929129;28;114726;-80
2024/02/03 08:07:27;;;;;;;2.90;1.40;;;;;;;20.93;42.11;102454.72;4911316;28;96831;-79
2024/02/03 08:09:52;;;;;;;2.08;0.88;;;;;;;20.93;41.75;102462.66;4929867;28;97435;-80
2024/02/03 08:12:18;;;;;;;1.58;1.05;;;;;;;20.93;41.80;102457.34;4902478;28;99474;-82
2024/02/03 08:14:43;;;;;;;1.45;0.75;;;;;;;20.94;41.71;102458.22;4917667;28;110419;-80
2024/02/03 08:17:09;;;;;;;1.60;1.02;;;;;;;20.93;41.84;102462.66;4919113;28;97042;-80
2024/02/03 08:19:37;;;;;;;2.65;2.10;;;;;;;20.92;41.90;102458.22;4917924;28;100245;-80
2024/02/03 08:22:03;;;;;;;1.77;1.38;;;;;;;20.92;41.77;102459.09;4923625;28;97252;-80
2024/02/03 08:24:28;;;;;;;2.60;1.70;;;;;;;20.94;42.02;102460.88;4910353;28;96785;-79
2024/02/03 08:26:54;;;;;;;2.00;1.25;;;;;;;20.94;41.88;102466.19;4911812;28;97338;-77
2024/02/03 08:29:19;;;;;;;1.80;1.20;;;;;;;20.94;41.50;102469.72;4930593;28;96808;-78
2024/02/03 08:31:45;;;;;;;1.45;1.00;;;;;;;20.94;42.09;102468.84;4920771;28;98063;-79
2024/02/03 08:34:10;;;;;;;1.80;1.50;;;;;;;20.94;42.11;102471.50;4913737;28;123603;-77
2024/02/03 08:36:35;;;;;;;2.03;0.93;;;;;;;20.95;42.02;102474.16;4911349;28;120655;-79
2024/02/03 08:39:01;;;;;;;1.60;1.30;;;;;;;20.94;42.20;102476.81;4913115;28;115106;-78
2024/02/03 08:41:26;;;;;;;1.63;0.90;;;;;;;20.94;41.93;102472.38;4938183;28;98464;-81
2024/02/03 08:43:52;;;;;;;1.70;1.08;;;;;;;20.94;42.12;102475.03;4924788;28;96923;-79
2024/02/03 08:46:17;;;;;;;1.98;1.02;;;;;;;20.95;42.04;102465.31;4915407;28;96840;-77
2024/02/03 08:48:42;;;;;;;2.13;1.27;;;;;;;20.95;41.73;102473.28;4921216;28;98050;-77
2024/02/03 08:51:08;;;;;;;2.38;1.00;;;;;;;20.95;41.97;102473.28;4909071;28;97452;-77
2024/02/03 08:53:33;;;;;;;1.80;1.27;;;;;;;20.95;42.09;102478.56;4919437;28;122732;-77
2024/02/03 08:55:58;;;;;;;1.70;1.23;;;;;;;20.95;42.27;102483.88;4919454;28;122151;-77
2024/02/03 08:58:24;;;;;;;2.60;1.13;;;;;;;20.94;42.07;102480.31;4925273;28;97007;-77
2024/02/03 09:00:49;;;;;;;4.55;1.50;;;;;;;20.94;41.90;102477.66;4928115;28;98886;-77
2024/02/03 09:03:15;;;;;;;4.20;1.75;;;;;;;20.95;42.33;102479.44;4927636;28;97327;-78
2024/02/03 09:05:40;;;;;;;1.83;1.20;;;;;;;20.95;42.30;102476.78;4905149;28;122138;-78
2024/02/03 09:08:05;;;;;;;1.77;1.50;;;;;;;20.96;42.14;102482.97;4922189;28;107504;-78
2024/02/03 09:10:31;;;;;;;1.90;0.90;;;;;;;20.96;41.85;102488.28;4918332;28;100327;-77
2024/02/03 09:12:57;;;;;;;3.03;1.15;;;;;;;20.95;42.14;102490.06;4910512;28;98266;-78
2024/02/03 09:15:22;;;;;;;2.83;1.40;;;;;;;20.96;42.22;102475.88;4921189;28;120620;-78
2024/02/03 09:17:50;;;;;;;1.92;0.93;;;;;;;20.96;41.93;102470.59;4923713;28;129330;-77
2024/02/03 09:20:15;;;;;;;2.13;0.93;;;;;;;20.96;41.86;102464.41;4906032;28;100230;-78
2024/02/03 09:22:42;;;;;;;1.88;1.35;;;;;;;20.96;42.19;102470.59;4925332;28;96925;-79
2024/02/03 09:25:07;;;;;;;2.65;1.48;;;;;;;20.96;42.22;102470.59;4926514;28;97006;-79
2024/02/03 09:27:33;;;;;;;1.85;0.93;;;;;;;20.95;42.10;102471.50;4930148;28;97652;-79
2024/02/03 09:29:58;;;;;;;2.33;0.80;;;;;;;20.97;42.23;102463.53;4925757;28;97159;-79
2024/02/03 09:32:28;;;;;;;2.33;0.88;;;;;;;20.96;42.04;102459.09;4908830;28;97059;-79
2024/02/03 09:34:54;;;;;;;2.03;1.08;;;;;;;20.96;42.22;102465.28;4926561;28;96706;-79
2024/02/03 09:37:20;;;;;;;2.97;1.45;;;;;;;20.97;41.91;102463.53;4919802;28;96863;-79
2024/02/03 09:39:45;;;;;;;3.20;1.42;;;;;;;20.98;42.17;102473.22;4910352;28;97337;-79
2024/02/03 09:42:11;;;;;;;1.92;1.05;;;;;;;20.97;42.33;102472.38;4920259;28;100901;-78
2024/02/03 09:44:36;;;;;;;1.98;1.02;;;;;;;20.97;42.16;102471.50;4925220;28;96841;-79
2024/02/03 09:47:02;;;;;;;2.35;1.08;;;;;;;20.98;42.30;102471.50;4928286;28;98706;-79
2024/02/03 09:49:28;;;;;;;3.15;1.42;;;;;;;20.98;42.22;102462.63;4910369;28;97462;-80
2024/02/03 09:51:53;;;;;;;2.10;1.45;;;;;;;20.98;42.32;102467.94;4930773;28;97180;-79
2024/02/03 09:54:20;;;;;;;1.65;1.20;;;;;;;20.99;42.21;102475.00;4926651;28;97030;-79
2024/02/03 09:56:48;;;;;;;2.85;1.10;;;;;;;20.96;42.19;102475.88;4916235;28;98653;-79
2024/02/03 09:59:14;;;;;;;4.30;0.82;;;;;;;20.98;42.00;102481.19;4930696;28;97282;-79
2024/02/03 10:01:45;;;;;;;1.80;0.73;;;;;;;20.99;42.06;102472.34;4926310;28;96899;-79
2024/02/03 10:04:11;;;;;;;1.63;0.82;;;;;;;20.97;41.99;102469.72;4908123;28;96817;-79
2024/02/03 10:06:37;;;;;;;1.40;0.90;;;;;;;20.98;42.04;102479.44;4929176;28;97685;-79
2024/02/03 10:09:04;;;;;;;2.55;0.82;;;;;;;20.99;42.34;102475.00;4929794;28;97565;-80
2024/02/03 10:11:38;;;;;;;1.95;0.77;;;;;;;20.98;42.05;102468.84;4901589;28;96876;-79
2024/02/03 10:14:04;;;;;;;3.00;1.40;;;;;;;20.98;42.17;102466.19;4910944;28;96884;-79
2024/02/03 10:16:30;;;;;;;2.50;1.10;;;;;;;20.98;42.42;102474.13;4912558;28;98085;-79
2024/02/03 10:18:55;;;;;;;2.13;1.23;;;;;;;20.97;42.22;102477.66;4929715;28;96677;-79
2024/02/03 10:21:23;;;;;;;4.25;0.98;;;;;;;20.98;42.13;102476.78;4925161;28;96840;-79
2024/02/03 10:23:50;;;;;;;3.50;0.85;;;;;;;20.98;42.27;102468.84;4923374;28;96828;-80
2024/02/03 10:26:15;;;;;;;1.20;0.63;;;;;;;20.99;42.17;102483.84;4909837;28;99942;-79
2024/02/03 10:28:43;;;;;;;2.05;1.40;;;;;;;20.98;42.31;102482.09;4932216;28;127657;-79
2024/02/03 10:31:08;;;;;;;1.20;0.80;;;;;;;20.98;42.09;102475.88;4930371;28;98333;-79
2024/02/03 10:33:33;;;;;;;1.80;1.10;;;;;;;21.00;42.20;102476.75;4930849;28;96813;-79
2024/02/03 10:35:59;;;;;;;1.73;0.73;;;;;;;20.99;42.26;102483.84;4922957;28;100519;-78
2024/02/03 10:38:24;;;;;;;2.08;1.00;;;;;;;21.00;42.45;102475.00;4910409;28;97994;-78
2024/02/03 10:40:51;;;;;;;2.92;1.50;;;;;;;21.00;42.44;102476.75;4913664;28;96841;-78
2024/02/03 10:43:23;;;;;;;2.08;1.10;;;;;;;21.00;42.27;102471.44;4931714;28;97397;-78
2024/02/03 10:45:54;;;;;;;2.10;1.20;;;;;;;21.00;42.38;102480.31;4902427;28;100011;-78
2024/02/03 10:48:20;;;;;;;3.08;1.13;;;;;;;20.99;42.04;102470.56;4922319;28;97905;-78
2024/02/03 10:50:51;;;;;;;1.70;1.52;;;;;;;21.00;42.13;102472.34;4923991;28;97027;-78
2024/02/03 10:53:23;;;;;;;2.10;1.00;;;;;;;21.00;42.41;102468.78;4927378;28;96863;-78
2024/02/03 10:55:56;;;;;;;2.30;0.90;;;;;;;21.00;42.44;102475.00;4905570;28;98261;-78
2024/02/03 10:58:26;;;;;;;4.55;0.88;;;;;;;21.00;42.38;102472.34;4916718;28;96820;-78
2024/02/03 11:00:57;;;;;;;1.75;0.73;;;;;;;21.00;42.04;102477.66;4925610;28;96837;-78
2024/02/03 11:03:23;;;;;;;2.35;1.40;;;;;;;21.00;42.57;102469.69;4917601;28;96746;-78
2024/02/03 11:05:54;;;;;;;2.10;0.88;;;;;;;21.00;42.18;102471.44;4916148;28;100606;-79
2024/02/03 11:08:20;;;;;;;1.52;0.88;;;;;;;21.00;42.27;102472.34;4936685;28;96982;-82
2024/02/03 11:10:50;;;;;;;2.08;1.10;;;;;;;21.00;42.19;102475.00;4927976;28;97030;-81
2024/02/03 11:13:16;;;;;;;2.55;0.82;;;;;;;21.01;42.23;102470.56;4927241;28;97967;-78
2024/02/03 11:15:44;;;;;;;2.72;1.00;;;;;;;21.01;42.11;102470.56;4925200;28;96893;-79
2024/02/03 11:18:14;;;;;;;2.03;1.42;;;;;;;21.02;42.10;102464.38;4908877;28;96908;-76